sensor_id;sensor_type;location;lat;lon;timestamp;P1;durP1;ratioP1;P2;durP2;ratioP2
79229;SDS011;68663;49.122;17.544;2023-03-31T00:00:25;4.90;;;3.90;;
79229;SDS011;68663;49.122;17.544;2023-03-31T00:02:51;5.75;;;4.03;;
79229;SDS011;68663;49.122;17.544;2023-03-31T00:05:18;5.72;;;3.50;;
79229;SDS011;68663;49.122;17.544;2023-03-31T00:07:45;4.63;;;3.25;;
79229;SDS011;68663;49.122;17.544;2023-03-31T00:10:12;5.47;;;3.45;;
79229;SDS011;68663;49.122;17.544;2023-03-31T00:12:39;4.35;;;3.42;;
79229;SDS011;68663;49.122;17.544;2023-03-31T00:15:04;4.60;;;3.45;;
79229;SDS011;68663;49.122;17.544;2023-03-31T00:17:30;6.25;;;3.78;;
79229;SDS011;68663;49.122;17.544;2023-03-31T00:19:57;5.07;;;3.63;;
79229;SDS011;68663;49.122;17.544;2023-03-31T00:22:24;6.75;;;3.33;;
79229;SDS011;68663;49.122;17.544;2023-03-31T00:24:51;4.82;;;3.47;;
79229;SDS011;68663;49.122;17.544;2023-03-31T00:27:17;4.82;;;3.40;;
79229;SDS011;68663;49.122;17.544;2023-03-31T00:29:42;4.45;;;3.70;;
79229;SDS011;68663;49.122;17.544;2023-03-31T00:32:09;4.00;;;3.50;;
79229;SDS011;68663;49.122;17.544;2023-03-31T00:34:35;4.80;;;3.88;;
79229;SDS011;68663;49.122;17.544;2023-03-31T00:37:01;4.43;;;3.40;;
79229;SDS011;68663;49.122;17.544;2023-03-31T00:39:27;5.00;;;3.28;;
79229;SDS011;68663;49.122;17.544;2023-03-31T00:41:57;4.85;;;3.25;;
79229;SDS011;68663;49.122;17.544;2023-03-31T00:44:23;4.55;;;3.20;;
79229;SDS011;68663;49.122;17.544;2023-03-31T00:46:56;5.68;;;3.15;;
79229;SDS011;68663;49.122;17.544;2023-03-31T00:52:06;3.85;;;3.22;;
79229;SDS011;68663;49.122;17.544;2023-03-31T00:54:37;3.88;;;3.17;;
79229;SDS011;68663;49.122;17.544;2023-03-31T00:57:06;5.53;;;3.25;;
79229;SDS011;68663;49.122;17.544;2023-03-31T00:59:37;4.22;;;3.40;;
79229;SDS011;68663;49.122;17.544;2023-03-31T01:02:07;4.20;;;3.10;;
79229;SDS011;68663;49.122;17.544;2023-03-31T01:04:34;6.40;;;3.38;;
79229;SDS011;68663;49.122;17.544;2023-03-31T01:07:13;4.95;;;3.15;;
79229;SDS011;68663;49.122;17.544;2023-03-31T01:09:44;4.13;;;3.20;;
79229;SDS011;68663;49.122;17.544;2023-03-31T01:12:11;4.20;;;2.97;;
79229;SDS011;68663;49.122;17.544;2023-03-31T01:14:39;4.22;;;3.13;;
79229;SDS011;68663;49.122;17.544;2023-03-31T01:17:04;3.85;;;2.65;;
79229;SDS011;68663;49.122;17.544;2023-03-31T01:20:36;3.88;;;2.72;;
79229;SDS011;68663;49.122;17.544;2023-03-31T01:27:49;4.15;;;3.13;;
79229;SDS011;68663;49.122;17.544;2023-03-31T01:45:18;4.07;;;3.03;;
79229;SDS011;68663;49.122;17.544;2023-03-31T01:55:19;3.30;;;2.53;;
79229;SDS011;68663;49.122;17.544;2023-03-31T01:58:04;4.65;;;2.88;;
79229;SDS011;68663;49.122;17.544;2023-03-31T02:00:47;4.28;;;2.72;;
79229;SDS011;68663;49.122;17.544;2023-03-31T02:03:21;3.47;;;3.00;;
79229;SDS011;68663;49.122;17.544;2023-03-31T02:05:54;4.93;;;2.70;;
79229;SDS011;68663;49.122;17.544;2023-03-31T02:08:25;3.78;;;2.95;;
79229;SDS011;68663;49.122;17.544;2023-03-31T02:10:54;3.80;;;2.83;;
79229;SDS011;68663;49.122;17.544;2023-03-31T02:13:21;3.78;;;2.72;;
79229;SDS011;68663;49.122;17.544;2023-03-31T02:15:50;3.78;;;2.70;;
79229;SDS011;68663;49.122;17.544;2023-03-31T02:18:20;4.05;;;2.95;;
79229;SDS011;68663;49.122;17.544;2023-03-31T02:20:50;3.60;;;2.25;;
79229;SDS011;68663;49.122;17.544;2023-03-31T02:23:21;3.97;;;2.70;;
79229;SDS011;68663;49.122;17.544;2023-03-31T02:25:51;3.30;;;2.58;;
79229;SDS011;68663;49.122;17.544;2023-03-31T02:28:20;3.05;;;2.58;;
79229;SDS011;68663;49.122;17.544;2023-03-31T02:33:29;4.38;;;2.42;;
79229;SDS011;68663;49.122;17.544;2023-03-31T02:35:54;3.22;;;2.53;;
79229;SDS011;68663;49.122;17.544;2023-03-31T02:38:20;3.78;;;2.70;;
79229;SDS011;68663;49.122;17.544;2023-03-31T02:40:45;4.47;;;2.92;;
79229;SDS011;68663;49.122;17.544;2023-03-31T02:43:11;3.60;;;2.70;;
79229;SDS011;68663;49.122;17.544;2023-03-31T02:45:44;4.10;;;2.60;;
79229;SDS011;68663;49.122;17.544;2023-03-31T02:51:29;3.50;;;2.58;;
79229;SDS011;68663;49.122;17.544;2023-03-31T03:02:32;3.75;;;2.42;;
79229;SDS011;68663;49.122;17.544;2023-03-31T03:05:18;2.90;;;2.33;;
79229;SDS011;68663;49.122;17.544;2023-03-31T03:13:51;3.80;;;2.67;;
79229;SDS011;68663;49.122;17.544;2023-03-31T03:19:06;3.88;;;2.58;;
79229;SDS011;68663;49.122;17.544;2023-03-31T03:21:32;4.93;;;2.53;;
79229;SDS011;68663;49.122;17.544;2023-03-31T03:23:58;3.25;;;2.53;;
79229;SDS011;68663;49.122;17.544;2023-03-31T03:26:24;3.10;;;2.40;;
79229;SDS011;68663;49.122;17.544;2023-03-31T03:28:52;3.40;;;2.30;;
79229;SDS011;68663;49.122;17.544;2023-03-31T03:31:19;4.13;;;2.90;;
79229;SDS011;68663;49.122;17.544;2023-03-31T03:33:47;3.50;;;2.40;;
79229;SDS011;68663;49.122;17.544;2023-03-31T03:36:13;3.33;;;2.75;;
79229;SDS011;68663;49.122;17.544;2023-03-31T03:38:39;3.60;;;2.70;;
79229;SDS011;68663;49.122;17.544;2023-03-31T03:41:04;5.07;;;2.63;;
79229;SDS011;68663;49.122;17.544;2023-03-31T03:43:30;5.22;;;2.50;;
79229;SDS011;68663;49.122;17.544;2023-03-31T03:45:55;2.92;;;2.20;;
79229;SDS011;68663;49.122;17.544;2023-03-31T03:48:21;7.90;;;2.40;;
79229;SDS011;68663;49.122;17.544;2023-03-31T03:50:46;3.70;;;2.58;;
79229;SDS011;68663;49.122;17.544;2023-03-31T03:53:12;3.30;;;2.20;;
79229;SDS011;68663;49.122;17.544;2023-03-31T03:55:39;2.95;;;2.13;;
79229;SDS011;68663;49.122;17.544;2023-03-31T03:58:04;5.07;;;2.67;;
79229;SDS011;68663;49.122;17.544;2023-03-31T04:00:30;9.50;;;3.65;;
79229;SDS011;68663;49.122;17.544;2023-03-31T04:02:55;6.37;;;3.43;;
79229;SDS011;68663;49.122;17.544;2023-03-31T04:05:21;6.10;;;2.95;;
79229;SDS011;68663;49.122;17.544;2023-03-31T04:07:46;5.03;;;2.80;;
79229;SDS011;68663;49.122;17.544;2023-03-31T04:10:12;7.67;;;3.43;;
79229;SDS011;68663;49.122;17.544;2023-03-31T04:12:37;6.60;;;2.67;;
79229;SDS011;68663;49.122;17.544;2023-03-31T04:15:03;6.37;;;3.17;;
79229;SDS011;68663;49.122;17.544;2023-03-31T04:17:29;7.63;;;3.00;;
79229;SDS011;68663;49.122;17.544;2023-03-31T04:23:21;6.70;;;2.67;;
79229;SDS011;68663;49.122;17.544;2023-03-31T04:25:48;9.23;;;3.30;;
79229;SDS011;68663;49.122;17.544;2023-03-31T04:28:16;25.35;;;7.20;;
79229;SDS011;68663;49.122;17.544;2023-03-31T04:30:42;32.97;;;7.95;;
79229;SDS011;68663;49.122;17.544;2023-03-31T04:33:07;38.58;;;9.00;;
79229;SDS011;68663;49.122;17.544;2023-03-31T04:35:32;29.07;;;9.67;;
79229;SDS011;68663;49.122;17.544;2023-03-31T04:38:23;32.85;;;9.68;;
79229;SDS011;68663;49.122;17.544;2023-03-31T04:40:51;36.40;;;10.35;;
79229;SDS011;68663;49.122;17.544;2023-03-31T04:43:17;29.92;;;9.10;;
79229;SDS011;68663;49.122;17.544;2023-03-31T04:45:44;27.67;;;8.70;;
79229;SDS011;68663;49.122;17.544;2023-03-31T04:48:09;36.83;;;9.73;;
79229;SDS011;68663;49.122;17.544;2023-03-31T04:50:35;31.50;;;9.50;;
79229;SDS011;68663;49.122;17.544;2023-03-31T04:53:01;26.40;;;8.30;;
79229;SDS011;68663;49.122;17.544;2023-03-31T04:55:27;25.67;;;9.20;;
79229;SDS011;68663;49.122;17.544;2023-03-31T04:57:53;28.98;;;8.52;;
79229;SDS011;68663;49.122;17.544;2023-03-31T05:00:18;31.00;;;9.63;;
79229;SDS011;68663;49.122;17.544;2023-03-31T05:02:44;31.58;;;9.00;;
79229;SDS011;68663;49.122;17.544;2023-03-31T05:05:10;33.13;;;9.95;;
79229;SDS011;68663;49.122;17.544;2023-03-31T05:07:36;27.63;;;8.55;;
79229;SDS011;68663;49.122;17.544;2023-03-31T05:10:02;28.10;;;10.13;;
79229;SDS011;68663;49.122;17.544;2023-03-31T05:12:28;21.70;;;7.70;;
79229;SDS011;68663;49.122;17.544;2023-03-31T05:14:53;30.93;;;8.83;;
79229;SDS011;68663;49.122;17.544;2023-03-31T05:17:19;24.42;;;8.95;;
79229;SDS011;68663;49.122;17.544;2023-03-31T05:19:44;28.15;;;8.40;;
79229;SDS011;68663;49.122;17.544;2023-03-31T05:22:09;26.23;;;8.77;;
79229;SDS011;68663;49.122;17.544;2023-03-31T05:24:35;26.55;;;8.63;;
79229;SDS011;68663;49.122;17.544;2023-03-31T05:27:00;23.80;;;8.15;;
79229;SDS011;68663;49.122;17.544;2023-03-31T05:29:26;20.33;;;7.50;;
79229;SDS011;68663;49.122;17.544;2023-03-31T05:31:51;25.77;;;8.70;;
79229;SDS011;68663;49.122;17.544;2023-03-31T05:34:18;24.92;;;8.00;;
79229;SDS011;68663;49.122;17.544;2023-03-31T05:36:43;22.25;;;7.30;;
79229;SDS011;68663;49.122;17.544;2023-03-31T05:39:09;23.45;;;8.63;;
79229;SDS011;68663;49.122;17.544;2023-03-31T05:41:35;21.52;;;7.80;;
79229;SDS011;68663;49.122;17.544;2023-03-31T05:44:00;24.03;;;8.20;;
79229;SDS011;68663;49.122;17.544;2023-03-31T05:46:28;23.27;;;7.25;;
79229;SDS011;68663;49.122;17.544;2023-03-31T05:48:54;20.77;;;7.15;;
79229;SDS011;68663;49.122;17.544;2023-03-31T05:51:20;21.85;;;7.90;;
79229;SDS011;68663;49.122;17.544;2023-03-31T05:53:46;20.63;;;7.25;;
79229;SDS011;68663;49.122;17.544;2023-03-31T05:56:11;22.60;;;7.50;;
79229;SDS011;68663;49.122;17.544;2023-03-31T05:58:37;17.63;;;8.45;;
79229;SDS011;68663;49.122;17.544;2023-03-31T06:01:04;23.02;;;6.55;;
79229;SDS011;68663;49.122;17.544;2023-03-31T06:03:35;18.90;;;7.95;;
79229;SDS011;68663;49.122;17.544;2023-03-31T06:06:02;16.98;;;7.20;;
79229;SDS011;68663;49.122;17.544;2023-03-31T06:08:32;20.23;;;7.45;;
79229;SDS011;68663;49.122;17.544;2023-03-31T06:10:58;18.27;;;6.63;;
79229;SDS011;68663;49.122;17.544;2023-03-31T06:13:24;19.23;;;6.72;;
79229;SDS011;68663;49.122;17.544;2023-03-31T06:15:56;17.65;;;6.45;;
79229;SDS011;68663;49.122;17.544;2023-03-31T06:18:24;17.67;;;6.65;;
79229;SDS011;68663;49.122;17.544;2023-03-31T06:20:52;18.52;;;7.00;;
79229;SDS011;68663;49.122;17.544;2023-03-31T06:23:19;15.88;;;6.10;;
79229;SDS011;68663;49.122;17.544;2023-03-31T06:25:44;18.38;;;7.47;;
79229;SDS011;68663;49.122;17.544;2023-03-31T06:28:10;15.75;;;6.53;;
79229;SDS011;68663;49.122;17.544;2023-03-31T06:30:35;17.60;;;6.43;;
79229;SDS011;68663;49.122;17.544;2023-03-31T06:33:01;16.55;;;6.50;;
79229;SDS011;68663;49.122;17.544;2023-03-31T06:35:26;15.27;;;6.82;;
79229;SDS011;68663;49.122;17.544;2023-03-31T06:37:52;12.67;;;6.30;;
79229;SDS011;68663;49.122;17.544;2023-03-31T06:40:17;14.63;;;6.45;;
79229;SDS011;68663;49.122;17.544;2023-03-31T06:42:43;18.80;;;6.65;;
79229;SDS011;68663;49.122;17.544;2023-03-31T06:45:08;17.25;;;6.35;;
79229;SDS011;68663;49.122;17.544;2023-03-31T06:47:34;17.30;;;6.68;;
79229;SDS011;68663;49.122;17.544;2023-03-31T06:50:01;15.15;;;6.90;;
79229;SDS011;68663;49.122;17.544;2023-03-31T06:52:27;14.80;;;5.65;;
79229;SDS011;68663;49.122;17.544;2023-03-31T06:54:52;17.15;;;7.10;;
79229;SDS011;68663;49.122;17.544;2023-03-31T06:57:18;15.95;;;6.28;;
79229;SDS011;68663;49.122;17.544;2023-03-31T06:59:44;14.15;;;5.50;;
79229;SDS011;68663;49.122;17.544;2023-03-31T07:02:10;13.20;;;5.75;;
79229;SDS011;68663;49.122;17.544;2023-03-31T07:04:35;15.23;;;6.45;;
79229;SDS011;68663;49.122;17.544;2023-03-31T07:07:01;16.45;;;6.50;;
79229;SDS011;68663;49.122;17.544;2023-03-31T07:09:26;14.00;;;6.10;;
79229;SDS011;68663;49.122;17.544;2023-03-31T07:11:52;15.90;;;6.27;;
79229;SDS011;68663;49.122;17.544;2023-03-31T07:14:17;15.48;;;5.88;;
79229;SDS011;68663;49.122;17.544;2023-03-31T07:16:42;13.35;;;6.10;;
79229;SDS011;68663;49.122;17.544;2023-03-31T07:19:08;15.52;;;5.82;;
79229;SDS011;68663;49.122;17.544;2023-03-31T07:21:35;14.65;;;6.55;;
79229;SDS011;68663;49.122;17.544;2023-03-31T07:24:01;10.82;;;5.47;;
79229;SDS011;68663;49.122;17.544;2023-03-31T07:26:26;15.52;;;5.50;;
79229;SDS011;68663;49.122;17.544;2023-03-31T07:28:52;14.48;;;6.10;;
79229;SDS011;68663;49.122;17.544;2023-03-31T07:31:20;12.38;;;5.07;;
79229;SDS011;68663;49.122;17.544;2023-03-31T07:33:46;10.23;;;4.90;;
79229;SDS011;68663;49.122;17.544;2023-03-31T07:36:11;14.55;;;6.05;;
79229;SDS011;68663;49.122;17.544;2023-03-31T07:38:37;11.32;;;5.55;;
79229;SDS011;68663;49.122;17.544;2023-03-31T07:41:02;10.02;;;4.65;;
79229;SDS011;68663;49.122;17.544;2023-03-31T07:43:28;11.55;;;4.53;;
79229;SDS011;68663;49.122;17.544;2023-03-31T07:45:53;13.75;;;5.57;;
79229;SDS011;68663;49.122;17.544;2023-03-31T07:48:19;11.53;;;4.80;;
79229;SDS011;68663;49.122;17.544;2023-03-31T07:50:44;13.68;;;5.90;;
79229;SDS011;68663;49.122;17.544;2023-03-31T07:53:10;13.18;;;5.45;;
79229;SDS011;68663;49.122;17.544;2023-03-31T07:55:36;10.70;;;5.22;;
79229;SDS011;68663;49.122;17.544;2023-03-31T07:58:01;12.98;;;6.70;;
79229;SDS011;68663;49.122;17.544;2023-03-31T08:00:26;14.00;;;5.33;;
79229;SDS011;68663;49.122;17.544;2023-03-31T08:02:52;12.65;;;5.60;;
79229;SDS011;68663;49.122;17.544;2023-03-31T08:05:18;12.00;;;5.35;;
79229;SDS011;68663;49.122;17.544;2023-03-31T08:07:45;9.02;;;5.13;;
79229;SDS011;68663;49.122;17.544;2023-03-31T08:10:13;11.20;;;5.55;;
79229;SDS011;68663;49.122;17.544;2023-03-31T08:12:41;9.73;;;4.90;;
79229;SDS011;68663;49.122;17.544;2023-03-31T08:15:07;10.68;;;4.88;;
79229;SDS011;68663;49.122;17.544;2023-03-31T08:17:33;11.57;;;5.00;;
79229;SDS011;68663;49.122;17.544;2023-03-31T08:19:58;9.50;;;4.50;;
79229;SDS011;68663;49.122;17.544;2023-03-31T08:22:23;12.18;;;5.07;;
79229;SDS011;68663;49.122;17.544;2023-03-31T08:24:49;9.73;;;4.97;;
79229;SDS011;68663;49.122;17.544;2023-03-31T08:27:14;9.73;;;4.57;;
79229;SDS011;68663;49.122;17.544;2023-03-31T08:29:40;9.25;;;5.03;;
79229;SDS011;68663;49.122;17.544;2023-03-31T08:32:06;8.67;;;4.37;;
79229;SDS011;68663;49.122;17.544;2023-03-31T08:34:31;8.60;;;4.30;;
79229;SDS011;68663;49.122;17.544;2023-03-31T08:36:56;10.53;;;4.80;;
79229;SDS011;68663;49.122;17.544;2023-03-31T08:39:22;10.73;;;4.93;;
79229;SDS011;68663;49.122;17.544;2023-03-31T08:44:18;9.20;;;5.00;;
79229;SDS011;68663;49.122;17.544;2023-03-31T08:46:50;11.18;;;5.15;;
79229;SDS011;68663;49.122;17.544;2023-03-31T08:49:18;9.68;;;4.90;;
79229;SDS011;68663;49.122;17.544;2023-03-31T08:51:55;10.57;;;5.45;;
79229;SDS011;68663;49.122;17.544;2023-03-31T08:54:32;9.00;;;3.83;;
79229;SDS011;68663;49.122;17.544;2023-03-31T08:57:01;9.60;;;4.50;;
79229;SDS011;68663;49.122;17.544;2023-03-31T09:05:10;7.32;;;3.85;;
79229;SDS011;68663;49.122;17.544;2023-03-31T09:21:12;9.48;;;4.05;;
79229;SDS011;68663;49.122;17.544;2023-03-31T09:23:56;9.30;;;4.47;;
79229;SDS011;68663;49.122;17.544;2023-03-31T09:27:01;10.60;;;4.75;;
79229;SDS011;68663;49.122;17.544;2023-03-31T09:29:26;8.30;;;4.07;;
79229;SDS011;68663;49.122;17.544;2023-03-31T09:31:59;9.75;;;4.53;;
79229;SDS011;68663;49.122;17.544;2023-03-31T09:34:31;7.93;;;4.05;;
79229;SDS011;68663;49.122;17.544;2023-03-31T09:36:58;8.00;;;4.18;;
79229;SDS011;68663;49.122;17.544;2023-03-31T09:39:23;7.68;;;4.55;;
79229;SDS011;68663;49.122;17.544;2023-03-31T09:41:50;8.00;;;3.90;;
79229;SDS011;68663;49.122;17.544;2023-03-31T09:47:13;8.07;;;3.55;;
79229;SDS011;68663;49.122;17.544;2023-03-31T09:49:49;7.63;;;3.80;;
79229;SDS011;68663;49.122;17.544;2023-03-31T09:54:58;7.68;;;3.50;;
79229;SDS011;68663;49.122;17.544;2023-03-31T09:57:27;7.22;;;3.83;;
79229;SDS011;68663;49.122;17.544;2023-03-31T09:59:53;9.15;;;4.00;;
79229;SDS011;68663;49.122;17.544;2023-03-31T10:02:36;7.18;;;3.75;;
79229;SDS011;68663;49.122;17.544;2023-03-31T10:05:04;8.45;;;4.13;;
79229;SDS011;68663;49.122;17.544;2023-03-31T10:07:32;6.18;;;3.58;;
79229;SDS011;68663;49.122;17.544;2023-03-31T10:09:59;5.63;;;3.25;;
79229;SDS011;68663;49.122;17.544;2023-03-31T10:12:25;5.85;;;3.38;;
79229;SDS011;68663;49.122;17.544;2023-03-31T10:14:53;6.32;;;4.30;;
79229;SDS011;68663;49.122;17.544;2023-03-31T10:17:35;7.57;;;3.83;;
79229;SDS011;68663;49.122;17.544;2023-03-31T10:20:50;9.60;;;4.35;;
79229;SDS011;68663;49.122;17.544;2023-03-31T10:23:25;7.70;;;3.92;;
79229;SDS011;68663;49.122;17.544;2023-03-31T10:25:52;6.38;;;3.70;;
79229;SDS011;68663;49.122;17.544;2023-03-31T10:28:18;6.57;;;3.28;;
79229;SDS011;68663;49.122;17.544;2023-03-31T10:30:46;6.07;;;3.58;;
79229;SDS011;68663;49.122;17.544;2023-03-31T10:33:17;7.25;;;3.47;;
79229;SDS011;68663;49.122;17.544;2023-03-31T10:35:47;7.57;;;3.78;;
79229;SDS011;68663;49.122;17.544;2023-03-31T10:38:16;6.15;;;3.20;;
79229;SDS011;68663;49.122;17.544;2023-03-31T10:40:54;5.90;;;3.30;;
79229;SDS011;68663;49.122;17.544;2023-03-31T10:43:25;5.82;;;3.53;;
79229;SDS011;68663;49.122;17.544;2023-03-31T10:45:51;7.78;;;3.50;;
79229;SDS011;68663;49.122;17.544;2023-03-31T10:50:59;7.65;;;4.18;;
79229;SDS011;68663;49.122;17.544;2023-03-31T10:53:38;8.13;;;3.78;;
79229;SDS011;68663;49.122;17.544;2023-03-31T11:01:21;6.72;;;3.28;;
79229;SDS011;68663;49.122;17.544;2023-03-31T11:09:15;7.65;;;3.40;;
79229;SDS011;68663;49.122;17.544;2023-03-31T11:11:57;6.80;;;3.78;;
79229;SDS011;68663;49.122;17.544;2023-03-31T11:30:49;7.00;;;3.42;;
79229;SDS011;68663;49.122;17.544;2023-03-31T11:33:45;7.20;;;3.53;;
79229;SDS011;68663;49.122;17.544;2023-03-31T11:39:03;6.10;;;3.20;;
79229;SDS011;68663;49.122;17.544;2023-03-31T11:42:14;6.07;;;3.15;;
79229;SDS011;68663;49.122;17.544;2023-03-31T11:44:49;4.88;;;2.88;;
79229;SDS011;68663;49.122;17.544;2023-03-31T11:47:21;5.05;;;2.83;;
79229;SDS011;68663;49.122;17.544;2023-03-31T11:49:52;5.10;;;3.10;;
79229;SDS011;68663;49.122;17.544;2023-03-31T11:52:27;5.68;;;3.65;;
79229;SDS011;68663;49.122;17.544;2023-03-31T11:54:58;6.25;;;3.28;;
79229;SDS011;68663;49.122;17.544;2023-03-31T11:57:35;6.82;;;3.28;;
79229;SDS011;68663;49.122;17.544;2023-03-31T12:00:09;6.00;;;2.78;;
79229;SDS011;68663;49.122;17.544;2023-03-31T12:05:37;5.18;;;2.92;;
79229;SDS011;68663;49.122;17.544;2023-03-31T12:08:15;5.40;;;3.00;;
79229;SDS011;68663;49.122;17.544;2023-03-31T12:10:52;4.80;;;2.90;;
79229;SDS011;68663;49.122;17.544;2023-03-31T12:13:32;5.40;;;3.38;;
79229;SDS011;68663;49.122;17.544;2023-03-31T12:21:16;5.13;;;2.70;;
79229;SDS011;68663;49.122;17.544;2023-03-31T12:23:43;6.72;;;3.25;;
79229;SDS011;68663;49.122;17.544;2023-03-31T12:26:13;6.18;;;3.42;;
79229;SDS011;68663;49.122;17.544;2023-03-31T12:28:52;5.00;;;3.05;;
79229;SDS011;68663;49.122;17.544;2023-03-31T12:31:28;5.40;;;3.00;;
79229;SDS011;68663;49.122;17.544;2023-03-31T12:34:01;5.72;;;3.20;;
79229;SDS011;68663;49.122;17.544;2023-03-31T12:42:47;5.10;;;2.65;;
79229;SDS011;68663;49.122;17.544;2023-03-31T12:45:30;6.13;;;2.90;;
79229;SDS011;68663;49.122;17.544;2023-03-31T12:53:23;5.53;;;2.75;;
79229;SDS011;68663;49.122;17.544;2023-03-31T12:55:54;5.13;;;2.85;;
79229;SDS011;68663;49.122;17.544;2023-03-31T13:06:10;6.70;;;2.80;;
79229;SDS011;68663;49.122;17.544;2023-03-31T13:08:52;4.80;;;2.75;;
79229;SDS011;68663;49.122;17.544;2023-03-31T13:16:52;9.82;;;3.40;;
79229;SDS011;68663;49.122;17.544;2023-03-31T13:19:35;6.22;;;3.50;;
79229;SDS011;68663;49.122;17.544;2023-03-31T13:22:02;10.25;;;4.57;;
79229;SDS011;68663;49.122;17.544;2023-03-31T13:24:29;7.18;;;3.50;;
79229;SDS011;68663;49.122;17.544;2023-03-31T13:26:56;8.35;;;3.85;;
79229;SDS011;68663;49.122;17.544;2023-03-31T13:29:38;8.98;;;4.22;;
79229;SDS011;68663;49.122;17.544;2023-03-31T13:32:06;8.75;;;4.63;;
79229;SDS011;68663;49.122;17.544;2023-03-31T13:34:43;6.70;;;4.50;;
79229;SDS011;68663;49.122;17.544;2023-03-31T13:37:35;10.23;;;4.95;;
79229;SDS011;68663;49.122;17.544;2023-03-31T13:43:26;6.38;;;3.97;;
79229;SDS011;68663;49.122;17.544;2023-03-31T13:51:19;5.95;;;3.40;;
79229;SDS011;68663;49.122;17.544;2023-03-31T13:59:21;5.72;;;3.38;;
79229;SDS011;68663;49.122;17.544;2023-03-31T14:05:38;5.50;;;3.58;;
79229;SDS011;68663;49.122;17.544;2023-03-31T14:07:58;8.05;;;3.38;;
79229;SDS011;68663;49.122;17.544;2023-03-31T14:13:04;4.45;;;3.42;;
79229;SDS011;68663;49.122;17.544;2023-03-31T14:15:36;6.93;;;2.88;;
79229;SDS011;68663;49.122;17.544;2023-03-31T14:18:04;11.15;;;3.35;;
79229;SDS011;68663;49.122;17.544;2023-03-31T14:20:34;7.05;;;2.90;;
79229;SDS011;68663;49.122;17.544;2023-03-31T14:34:25;6.60;;;3.20;;
79229;SDS011;68663;49.122;17.544;2023-03-31T14:37:02;13.90;;;3.67;;
79229;SDS011;68663;49.122;17.544;2023-03-31T14:39:33;7.05;;;3.47;;
79229;SDS011;68663;49.122;17.544;2023-03-31T14:42:03;6.00;;;3.20;;
79229;SDS011;68663;49.122;17.544;2023-03-31T14:46:57;12.48;;;3.63;;
79229;SDS011;68663;49.122;17.544;2023-03-31T14:49:26;6.57;;;3.25;;
79229;SDS011;68663;49.122;17.544;2023-03-31T14:51:54;9.02;;;3.50;;
79229;SDS011;68663;49.122;17.544;2023-03-31T14:54:24;11.10;;;3.38;;
79229;SDS011;68663;49.122;17.544;2023-03-31T14:56:51;6.88;;;2.90;;
79229;SDS011;68663;49.122;17.544;2023-03-31T14:59:26;8.60;;;3.40;;
79229;SDS011;68663;49.122;17.544;2023-03-31T15:01:55;11.40;;;3.40;;
79229;SDS011;68663;49.122;17.544;2023-03-31T15:04:24;8.68;;;3.38;;
79229;SDS011;68663;49.122;17.544;2023-03-31T15:06:52;9.25;;;2.95;;
79229;SDS011;68663;49.122;17.544;2023-03-31T15:09:25;6.82;;;3.47;;
79229;SDS011;68663;49.122;17.544;2023-03-31T15:11:55;7.35;;;3.17;;
79229;SDS011;68663;49.122;17.544;2023-03-31T15:14:28;6.22;;;3.30;;
79229;SDS011;68663;49.122;17.544;2023-03-31T15:16:58;6.53;;;3.10;;
79229;SDS011;68663;49.122;17.544;2023-03-31T15:19:34;10.23;;;3.17;;
79229;SDS011;68663;49.122;17.544;2023-03-31T15:22:10;6.28;;;3.30;;
79229;SDS011;68663;49.122;17.544;2023-03-31T15:24:40;5.53;;;3.20;;
79229;SDS011;68663;49.122;17.544;2023-03-31T15:27:07;6.03;;;3.05;;
79229;SDS011;68663;49.122;17.544;2023-03-31T15:29:40;6.80;;;3.00;;
79229;SDS011;68663;49.122;17.544;2023-03-31T15:34:54;5.75;;;3.00;;
79229;SDS011;68663;49.122;17.544;2023-03-31T15:37:24;4.90;;;2.60;;
79229;SDS011;68663;49.122;17.544;2023-03-31T15:39:55;5.28;;;2.80;;
79229;SDS011;68663;49.122;17.544;2023-03-31T15:42:24;4.40;;;2.72;;
79229;SDS011;68663;49.122;17.544;2023-03-31T15:44:55;5.00;;;2.80;;
79229;SDS011;68663;49.122;17.544;2023-03-31T15:47:50;5.22;;;2.85;;
79229;SDS011;68663;49.122;17.544;2023-03-31T15:50:16;4.57;;;3.08;;
79229;SDS011;68663;49.122;17.544;2023-03-31T15:52:48;4.53;;;2.80;;
79229;SDS011;68663;49.122;17.544;2023-03-31T15:55:27;5.13;;;2.90;;
79229;SDS011;68663;49.122;17.544;2023-03-31T15:57:56;4.45;;;3.15;;
79229;SDS011;68663;49.122;17.544;2023-03-31T16:03:02;5.15;;;2.50;;
79229;SDS011;68663;49.122;17.544;2023-03-31T16:05:41;3.78;;;2.90;;
79229;SDS011;68663;49.122;17.544;2023-03-31T16:08:26;7.47;;;3.03;;
79229;SDS011;68663;49.122;17.544;2023-03-31T16:10:59;6.68;;;3.22;;
79229;SDS011;68663;49.122;17.544;2023-03-31T16:13:28;7.82;;;3.50;;
79229;SDS011;68663;49.122;17.544;2023-03-31T16:15:56;8.43;;;2.90;;
79229;SDS011;68663;49.122;17.544;2023-03-31T16:18:31;8.05;;;5.60;;
79229;SDS011;68663;49.122;17.544;2023-03-31T16:21:00;12.18;;;7.80;;
79229;SDS011;68663;49.122;17.544;2023-03-31T16:23:29;9.55;;;7.45;;
79229;SDS011;68663;49.122;17.544;2023-03-31T16:25:56;13.05;;;8.73;;
79229;SDS011;68663;49.122;17.544;2023-03-31T16:28:27;11.60;;;7.88;;
79229;SDS011;68663;49.122;17.544;2023-03-31T16:30:55;10.38;;;7.50;;
79229;SDS011;68663;49.122;17.544;2023-03-31T16:33:22;9.65;;;6.82;;
79229;SDS011;68663;49.122;17.544;2023-03-31T16:35:52;9.07;;;6.47;;
79229;SDS011;68663;49.122;17.544;2023-03-31T16:38:20;9.60;;;6.13;;
79229;SDS011;68663;49.122;17.544;2023-03-31T16:40:48;9.18;;;5.95;;
79229;SDS011;68663;49.122;17.544;2023-03-31T16:43:20;7.65;;;5.53;;
79229;SDS011;68663;49.122;17.544;2023-03-31T16:45:54;8.15;;;5.30;;
79229;SDS011;68663;49.122;17.544;2023-03-31T16:48:21;11.40;;;5.05;;
79229;SDS011;68663;49.122;17.544;2023-03-31T16:50:49;7.20;;;4.55;;
79229;SDS011;68663;49.122;17.544;2023-03-31T16:53:21;6.43;;;4.43;;
79229;SDS011;68663;49.122;17.544;2023-03-31T16:55:47;8.52;;;3.95;;
79229;SDS011;68663;49.122;17.544;2023-03-31T16:58:14;4.95;;;4.10;;
79229;SDS011;68663;49.122;17.544;2023-03-31T17:00:40;7.05;;;4.22;;
79229;SDS011;68663;49.122;17.544;2023-03-31T17:03:07;7.00;;;3.90;;
79229;SDS011;68663;49.122;17.544;2023-03-31T17:05:37;6.70;;;4.55;;
79229;SDS011;68663;49.122;17.544;2023-03-31T17:08:03;5.65;;;3.72;;
79229;SDS011;68663;49.122;17.544;2023-03-31T17:10:29;6.53;;;4.18;;
79229;SDS011;68663;49.122;17.544;2023-03-31T17:12:55;5.00;;;3.85;;
79229;SDS011;68663;49.122;17.544;2023-03-31T17:15:20;7.40;;;4.40;;
79229;SDS011;68663;49.122;17.544;2023-03-31T17:17:47;6.53;;;3.85;;
79229;SDS011;68663;49.122;17.544;2023-03-31T17:20:12;7.68;;;4.03;;
79229;SDS011;68663;49.122;17.544;2023-03-31T17:22:37;8.27;;;4.43;;
79229;SDS011;68663;49.122;17.544;2023-03-31T17:25:03;5.68;;;3.58;;
79229;SDS011;68663;49.122;17.544;2023-03-31T17:29:57;5.55;;;3.60;;
79229;SDS011;68663;49.122;17.544;2023-03-31T17:32:23;10.32;;;3.50;;
79229;SDS011;68663;49.122;17.544;2023-03-31T17:34:48;11.77;;;4.82;;
79229;SDS011;68663;49.122;17.544;2023-03-31T17:37:18;5.88;;;4.15;;
79229;SDS011;68663;49.122;17.544;2023-03-31T17:39:44;9.88;;;4.68;;
79229;SDS011;68663;49.122;17.544;2023-03-31T17:42:10;8.00;;;4.13;;
79229;SDS011;68663;49.122;17.544;2023-03-31T17:44:37;7.43;;;4.07;;
79229;SDS011;68663;49.122;17.544;2023-03-31T17:47:03;13.15;;;4.10;;
79229;SDS011;68663;49.122;17.544;2023-03-31T17:49:29;6.93;;;4.53;;
79229;SDS011;68663;49.122;17.544;2023-03-31T17:51:54;9.30;;;4.50;;
79229;SDS011;68663;49.122;17.544;2023-03-31T17:54:19;5.70;;;3.35;;